Time;durP1;ratioP1;P1;durP2;ratioP2;P2;SDS_P1;SDS_P2;PMS_P1;PMS_P2;Temp;Humidity;BMP_temperature;BMP_pressure;BME280_temperature;BME280_humidity;BME280_pressure;Samples;Min_cycle;Max_cycle;Signal;HPM_P1;HPM_P2
2022/04/01 00:01:22;;;;;;;33.72;21.20;;;4.70;99.90;;;;;;5045977;28;20500;-75
2022/04/01 00:03:48;;;;;;;31.50;19.83;;;4.60;99.90;;;;;;5044895;28;20041;-74
2022/04/01 00:06:14;;;;;;;31.48;20.48;;;4.60;99.90;;;;;;5044166;28;20397;-74
2022/04/01 00:08:39;;;;;;;29.45;19.13;;;4.60;99.90;;;;;;5045728;28;20132;-73
2022/04/01 00:11:05;;;;;;;30.00;19.40;;;4.50;99.90;;;;;;5044483;28;20060;-74
2022/04/01 00:13:31;;;;;;;29.98;18.95;;;4.50;99.90;;;;;;5044608;28;20045;-74
2022/04/01 00:15:58;;;;;;;28.38;18.73;;;4.50;99.90;;;;;;5045803;28;20586;-74
2022/04/01 00:18:25;;;;;;;29.58;19.65;;;4.50;99.90;;;;;;5044542;28;20067;-72
2022/04/01 00:20:51;;;;;;;30.42;19.05;;;4.50;99.90;;;;;;5044280;28;20068;-74
2022/04/01 00:23:17;;;;;;;30.13;19.55;;;4.60;99.90;;;;;;5045447;28;20044;-69
2022/04/01 00:25:43;;;;;;;21.70;13.25;;;4.50;99.90;;;;;;5043448;28;20045;-75
2022/04/01 00:28:10;;;;;;;20.13;12.27;;;4.30;99.90;;;;;;5042134;28;20037;-72
2022/04/01 00:30:38;;;;;;;14.00;9.30;;;4.00;99.90;;;;;;5040948;28;20052;-76
2022/04/01 00:33:08;;;;;;;13.27;8.75;;;4.00;99.90;;;;;;5039652;28;20041;-75
2022/04/01 00:35:35;;;;;;;10.65;7.10;;;4.00;99.90;;;;;;5043778;28;20053;-77
2022/04/01 00:38:01;;;;;;;9.05;6.47;;;3.80;99.90;;;;;;5043237;28;20429;-74
2022/04/01 00:40:27;;;;;;;5.00;3.45;;;3.80;99.90;;;;;;5055641;28;20128;-75
2022/04/01 00:42:53;;;;;;;4.32;2.88;;;3.40;99.90;;;;;;5055720;28;20119;-76
2022/04/01 00:45:19;;;;;;;3.00;2.38;;;3.40;99.90;;;;;;5055367;28;20045;-76
2022/04/01 00:47:45;;;;;;;3.00;2.55;;;3.20;99.90;;;;;;5055321;28;20041;-76
2022/04/01 00:50:11;;;;;;;3.30;2.15;;;3.10;99.90;;;;;;5054481;28;20071;-68
2022/04/01 00:52:38;;;;;;;2.38;2.15;;;3.00;99.90;;;;;;5033840;28;20459;-75
2022/04/01 00:55:08;;;;;;;2.63;2.03;;;2.90;99.90;;;;;;5035396;28;20033;-76
2022/04/01 00:57:35;;;;;;;;;;;2.80;99.90;;;;;;5035573;28;20052;-76
2022/04/01 01:00:01;;;;;;;2.42;1.92;;;2.90;99.90;;;;;;5035394;28;19963;-76
2022/04/01 01:02:26;;;;;;;3.42;2.25;;;2.90;99.90;;;;;;5034971;28;20044;-75
2022/04/01 01:04:52;;;;;;;3.00;2.50;;;2.80;99.90;;;;;;5035408;28;20033;-76
2022/04/01 01:07:18;;;;;;;2.55;2.35;;;2.90;99.90;;;;;;5035293;28;20065;-75
2022/04/01 01:09:44;;;;;;;2.60;2.30;;;2.70;99.90;;;;;;5035083;28;20044;-75
2022/04/01 01:12:11;;;;;;;3.72;2.97;;;2.70;99.90;;;;;;5034904;28;20079;-75
2022/04/01 01:14:40;;;;;;;3.35;2.92;;;2.60;99.90;;;;;;5035165;28;20033;-70
2022/04/01 01:17:10;;;;;;;4.35;3.03;;;2.70;99.90;;;;;;5034937;28;20060;-75
2022/04/01 01:19:36;;;;;;;3.37;3.07;;;2.60;99.90;;;;;;5035056;28;20037;-75
2022/04/01 01:22:02;;;;;;;3.40;2.80;;;2.60;99.90;;;;;;5034686;28;20106;-75
2022/04/01 01:24:32;;;;;;;4.63;3.58;;;2.40;99.90;;;;;;5034811;28;20072;-75
2022/04/01 01:26:59;;;;;;;3.85;3.50;;;2.40;99.90;;;;;;5034701;28;20119;-75
2022/04/01 01:29:30;;;;;;;5.10;3.70;;;2.50;99.90;;;;;;5034776;28;20420;-75
2022/04/01 01:31:58;;;;;;;5.40;4.10;;;2.50;99.90;;;;;;5034515;28;20053;-76
2022/04/01 01:34:25;;;;;;;4.90;4.28;;;2.50;99.90;;;;;;5034485;28;20041;-75
2022/04/01 01:36:52;;;;;;;5.10;4.60;;;2.60;99.90;;;;;;5034458;28;20405;-74
2022/04/01 01:39:19;;;;;;;6.47;4.82;;;2.60;99.90;;;;;;5034423;28;20033;-76
2022/04/01 01:41:45;;;;;;;5.50;4.78;;;2.20;99.90;;;;;;5034397;28;20041;-75
2022/04/01 01:44:12;;;;;;;5.65;5.05;;;2.30;99.90;;;;;;5034427;28;20037;-68
2022/04/01 01:46:38;;;;;;;7.10;6.40;;;2.50;99.90;;;;;;5014485;28;20064;-74
2022/04/01 01:49:05;;;;;;;6.93;6.22;;;2.60;99.90;;;;;;5014434;28;20552;-75
2022/04/01 01:56:59;;;;;;;7.78;6.47;;;2.40;99.90;;;;;;5014646;28;20600;-75
2022/04/01 01:59:26;;;;;;;10.95;6.55;;;2.30;99.90;;;;;;5014432;28;20066;-75
2022/04/01 02:01:52;;;;;;;7.88;6.53;;;2.10;99.90;;;;;;5024050;28;20124;-71
2022/04/01 02:04:22;;;;;;;7.72;6.80;;;2.20;99.90;;;;;;5034279;28;20037;-69
2022/04/01 02:06:48;;;;;;;9.25;7.65;;;2.30;99.90;;;;;;5033789;28;20103;-75
2022/04/01 02:09:15;;;;;;;7.63;6.65;;;2.20;99.90;;;;;;5033683;28;20103;-75
2022/04/01 02:11:40;;;;;;;8.68;6.97;;;2.10;99.90;;;;;;5033811;28;20107;-76
2022/04/01 02:14:06;;;;;;;7.82;5.47;;;1.80;99.90;;;;;;5033791;28;20038;-75
2022/04/01 02:16:32;;;;;;;5.43;4.75;;;1.50;99.90;;;;;;5033760;28;20076;-76
2022/04/01 02:18:58;;;;;;;4.90;4.40;;;1.40;99.90;;;;;;5033591;28;20501;-75
2022/04/01 02:21:23;;;;;;;5.60;5.03;;;1.40;99.90;;;;;;5033730;28;20044;-75
2022/04/01 02:23:51;;;;;;;5.20;4.65;;;1.50;99.90;;;;;;5033794;28;20037;-76
2022/04/01 02:26:17;;;;;;;5.85;4.32;;;1.40;99.90;;;;;;5033654;28;20123;-76
2022/04/01 02:28:43;;;;;;;5.00;4.50;;;1.40;99.90;;;;;;5033661;28;20049;-75
2022/04/01 02:31:14;;;;;;;5.18;4.68;;;1.40;99.90;;;;;;5033579;28;20046;-76
2022/04/01 02:33:42;;;;;;;4.80;4.30;;;1.50;99.90;;;;;;5033711;28;20049;-77
2022/04/01 02:36:10;;;;;;;5.18;4.68;;;1.40;99.90;;;;;;5033330;28;20342;-76
2022/04/01 02:38:39;;;;;;;3.70;3.40;;;1.50;99.90;;;;;;5016178;28;20069;-77
2022/04/01 02:41:07;;;;;;;3.70;3.40;;;1.30;99.90;;;;;;5012939;28;20498;-76
2022/04/01 02:43:33;;;;;;;3.38;3.08;;;1.30;99.90;;;;;;5012669;28;20038;-76
2022/04/01 02:45:59;;;;;;;3.55;3.15;;;1.30;99.90;;;;;;5012947;28;20046;-69
2022/04/01 02:48:26;;;;;;;3.30;3.00;;;1.30;99.90;;;;;;5013557;28;20034;-76
2022/04/01 02:50:52;;;;;;;3.45;3.15;;;1.30;99.90;;;;;;5013347;28;20477;-77
2022/04/01 02:53:18;;;;;;;4.47;3.72;;;1.40;99.90;;;;;;5013304;28;20057;-77
2022/04/01 02:55:44;;;;;;;4.38;3.92;;;1.60;99.90;;;;;;5013416;28;20041;-77
2022/04/01 02:58:10;;;;;;;4.10;3.70;;;1.60;99.90;;;;;;5013764;28;20058;-77
2022/04/01 03:00:38;;;;;;;3.33;3.03;;;1.70;99.90;;;;;;5013541;28;20104;-78
2022/04/01 03:03:06;;;;;;;3.00;2.70;;;1.60;99.90;;;;;;5013369;28;20088;-78
2022/04/01 03:05:40;;;;;;;2.42;2.22;;;1.50;99.90;;;;;;5013394;28;20568;-77
2022/04/01 03:08:07;;;;;;;2.22;1.90;;;1.60;99.90;;;;;;5013235;28;20049;-77
2022/04/01 03:10:38;;;;;;;2.00;1.77;;;1.40;99.90;;;;;;5012961;28;20034;-77
2022/04/01 03:13:07;;;;;;;1.52;1.42;;;1.60;99.90;;;;;;5012229;28;20049;-77
2022/04/01 03:15:33;;;;;;;1.70;1.60;;;1.60;99.90;;;;;;5012976;28;20417;-77
2022/04/01 03:17:59;;;;;;;2.15;1.60;;;1.50;99.90;;;;;;5013193;28;20530;-78
2022/04/01 03:20:26;;;;;;;1.85;1.60;;;1.60;99.90;;;;;;5013134;28;20038;-79
2022/04/01 03:22:52;;;;;;;2.03;1.65;;;1.40;99.90;;;;;;5013129;28;20513;-79
2022/04/01 03:25:20;;;;;;;1.30;1.20;;;1.50;99.90;;;;;;5012818;28;20573;-77
2022/04/01 03:27:50;;;;;;;1.42;1.33;;;1.60;99.90;;;;;;5012730;28;20132;-77
2022/04/01 03:30:17;;;;;;;2.03;1.75;;;1.60;99.90;;;;;;5013231;28;20065;-78
2022/04/01 03:32:45;;;;;;;1.17;1.05;;;1.60;99.90;;;;;;5013123;28;20129;-78
2022/04/01 03:35:17;;;;;;;1.15;1.05;;;1.60;99.90;;;;;;5013045;28;20034;-79
2022/04/01 03:37:45;;;;;;;0.90;0.90;;;1.50;99.90;;;;;;5013074;28;20057;-78
2022/04/01 03:40:16;;;;;;;1.10;1.00;;;1.60;99.90;;;;;;5013090;28;20059;-75
2022/04/01 03:42:44;;;;;;;0.85;0.85;;;1.60;99.90;;;;;;5012884;28;20049;-78
2022/04/01 03:45:11;;;;;;;1.70;0.98;;;1.40;99.90;;;;;;5013206;28;20374;-77
2022/04/01 03:47:58;;;;;;;0.75;0.75;;;1.40;99.90;;;;;;5013114;28;20568;-77
2022/04/01 03:50:33;;;;;;;0.98;0.95;;;1.50;99.90;;;;;;5012910;28;20034;-77
2022/04/01 03:53:09;;;;;;;0.75;0.70;;;1.50;99.90;;;;;;5012807;28;20116;-78
2022/04/01 03:55:37;;;;;;;0.95;0.88;;;1.40;99.90;;;;;;5012914;28;20044;-78
2022/04/01 03:58:12;;;;;;;0.77;0.77;;;1.50;99.90;;;;;;5012992;28;20046;-79
2022/04/01 04:00:41;;;;;;;0.63;0.63;;;1.60;99.90;;;;;;5012633;28;20041;-78
2022/04/01 04:03:09;;;;;;;0.80;0.80;;;1.40;99.90;;;;;;5012659;28;20642;-75
2022/04/01 04:05:37;;;;;;;0.73;0.73;;;1.50;99.90;;;;;;5012771;28;20045;-78
2022/04/01 04:08:07;;;;;;;1.05;0.90;;;1.50;99.90;;;;;;5012552;28;20034;-78
2022/04/01 04:10:34;;;;;;;0.73;0.73;;;1.60;99.90;;;;;;5012573;28;20054;-78
2022/04/01 04:13:06;;;;;;;0.80;0.80;;;1.70;99.90;;;;;;5012462;28;20232;-78
2022/04/01 04:15:42;;;;;;;0.80;0.80;;;1.80;99.90;;;;;;5012675;28;20141;-78
2022/04/01 04:18:12;;;;;;;1.20;1.10;;;1.80;99.90;;;;;;5012424;28;20042;-77
2022/04/01 04:20:51;;;;;;;1.23;1.00;;;1.90;99.90;;;;;;5012570;28;20443;-77
2022/04/01 04:23:43;;;;;;;1.20;1.10;;;1.80;99.90;;;;;;5024013;28;20540;-78
2022/04/01 04:26:13;;;;;;;1.20;1.10;;;2.00;99.90;;;;;;5034834;28;20049;-78
2022/04/01 04:28:44;;;;;;;1.40;1.30;;;1.90;99.90;;;;;;5035637;28;20045;-77
2022/04/01 04:31:13;;;;;;;1.30;1.20;;;1.70;99.90;;;;;;5034603;28;20147;-74
2022/04/01 04:33:47;;;;;;;1.77;1.50;;;1.50;99.90;;;;;;5037439;28;20087;-78
2022/04/01 04:36:16;;;;;;;1.73;1.58;;;1.40;99.90;;;;;;5033517;28;20188;-70
2022/04/01 04:38:46;;;;;;;1.80;1.70;;;1.40;99.90;;;;;;5017620;28;20057;-77
2022/04/01 04:41:12;;;;;;;1.80;1.70;;;1.50;99.90;;;;;;5035786;28;20048;-79
2022/04/01 04:43:41;;;;;;;1.70;1.60;;;1.30;99.90;;;;;;5035672;28;20080;-78
2022/04/01 04:46:13;;;;;;;2.40;2.20;;;1.40;99.90;;;;;;5035404;28;20493;-78
2022/04/01 04:48:41;;;;;;;2.75;2.55;;;1.40;99.90;;;;;;5035484;28;20045;-78
2022/04/01 04:51:09;;;;;;;2.78;2.58;;;1.30;99.90;;;;;;5034939;28;20531;-77
2022/04/01 04:53:35;;;;;;;3.20;2.88;;;1.10;99.90;;;;;;5035123;28;20477;-77
2022/04/01 04:56:03;;;;;;;3.28;2.97;;;1.10;99.90;;;;;;5035491;28;20100;-78
2022/04/01 04:58:36;;;;;;;3.10;2.90;;;1.10;99.90;;;;;;5035389;28;20052;-78
2022/04/01 05:01:08;;;;;;;4.18;3.78;;;1.20;99.90;;;;;;5035248;28;20033;-77
2022/04/01 05:03:47;;;;;;;4.28;3.88;;;1.30;99.90;;;;;;5035055;28;20102;-78
2022/04/01 05:06:17;;;;;;;4.28;3.88;;;1.50;99.90;;;;;;5035137;28;20037;-75
2022/04/01 05:09:17;;;;;;;4.47;3.72;;;1.40;99.90;;;;;;5035104;28;20037;-78
2022/04/01 05:12:04;;;;;;;3.80;3.50;;;1.30;99.90;;;;;;5034704;28;20037;-78
2022/04/01 05:14:49;;;;;;;3.63;3.33;;;1.30;99.90;;;;;;5035020;28;20144;-73
2022/04/01 05:17:25;;;;;;;3.60;3.22;;;1.30;99.90;;;;;;5037395;28;20052;-77
2022/04/01 05:19:59;;;;;;;4.03;2.60;;;1.30;99.90;;;;;;5035081;28;20103;-76
2022/04/01 05:22:48;;;;;;;2.90;2.67;;;1.20;99.90;;;;;;5034888;28;20038;-78
2022/04/01 05:25:19;;;;;;;2.58;2.35;;;1.20;99.90;;;;;;5048018;28;20041;-77
2022/04/01 05:27:51;;;;;;;3.42;3.00;;;1.00;99.90;;;;;;5034757;28;20037;-77
2022/04/01 05:30:20;;;;;;;3.40;3.10;;;0.90;99.90;;;;;;5034740;28;20053;-77
2022/04/01 05:33:00;;;;;;;4.90;3.67;;;0.90;99.90;;;;;;5031955;28;20041;-77
2022/04/01 05:35:29;;;;;;;6.10;4.45;;;1.00;99.90;;;;;;5033718;28;20037;-77
2022/04/01 05:37:57;;;;;;;5.78;4.60;;;1.00;99.90;;;;;;5032477;28;20046;-77
2022/04/01 05:40:23;;;;;;;7.70;4.03;;;0.90;99.90;;;;;;5034798;28;20032;-77
2022/04/01 05:42:52;;;;;;;7.38;4.40;;;0.90;99.90;;;;;;5034710;28;20711;-78
2022/04/01 05:45:20;;;;;;;6.88;4.57;;;0.80;99.90;;;;;;5034350;28;20033;-77
2022/04/01 05:47:47;;;;;;;5.50;4.50;;;0.80;99.90;;;;;;5034222;28;20136;-75
2022/04/01 05:50:18;;;;;;;6.38;4.13;;;0.80;99.90;;;;;;5049263;28;20048;-71
2022/04/01 05:52:46;;;;;;;6.20;4.22;;;0.60;99.90;;;;;;5034221;28;20091;-70
2022/04/01 05:55:17;;;;;;;7.80;4.45;;;0.50;99.90;;;;;;5034235;28;20179;-69
2022/04/01 05:57:44;;;;;;;9.23;5.10;;;0.60;99.90;;;;;;5034252;28;20078;-72
2022/04/01 06:00:12;;;;;;;6.93;4.68;;;0.60;99.90;;;;;;5036543;28;20041;-76
2022/04/01 06:02:44;;;;;;;6.47;4.93;;;0.50;99.90;;;;;;5036674;28;20409;-75
2022/04/01 06:05:31;;;;;;;6.53;4.65;;;0.50;99.90;;;;;;5054171;28;20033;-75
2022/04/01 06:08:48;;;;;;;7.25;4.90;;;0.50;99.90;;;;;;5054098;28;20037;-75
2022/04/01 06:11:22;;;;;;;5.43;4.63;;;0.40;99.90;;;;;;5049790;28;20526;-76
2022/04/01 06:14:04;;;;;;;6.20;5.25;;;0.50;99.90;;;;;;5053794;28;20037;-76
2022/04/01 06:16:46;;;;;;;5.78;4.40;;;0.60;99.90;;;;;;5052872;28;20540;-75
2022/04/01 06:19:11;;;;;;;6.68;4.70;;;0.60;99.90;;;;;;5053099;28;20052;-75
2022/04/01 06:21:50;;;;;;;6.95;4.55;;;0.60;99.90;;;;;;5053615;28;20045;-75
2022/04/01 06:24:24;;;;;;;10.30;5.38;;;0.40;99.90;;;;;;5047910;28;20094;-76
2022/04/01 06:27:00;;;;;;;9.43;4.50;;;0.40;99.90;;;;;;5051552;28;20097;-75
2022/04/01 06:29:43;;;;;;;6.55;3.83;;;0.40;99.90;;;;;;5053418;28;20527;-76
2022/04/01 06:32:33;;;;;;;9.70;4.32;;;0.40;99.90;;;;;;5053297;28;20129;-76
2022/04/01 06:34:58;;;;;;;8.43;4.80;;;0.40;99.90;;;;;;5053233;28;20039;-75
2022/04/01 06:37:36;;;;;;;7.18;4.65;;;0.40;99.90;;;;;;5053101;28;20040;-76
2022/04/01 06:40:12;;;;;;;5.85;3.90;;;0.30;99.90;;;;;;5053345;28;20170;-75
2022/04/01 06:42:39;;;;;;;5.32;4.03;;;0.30;99.90;;;;;;5053337;28;20040;-76
2022/04/01 06:45:09;;;;;;;6.50;4.03;;;0.30;99.90;;;;;;5053273;28;20037;-76
2022/04/01 06:47:41;;;;;;;6.65;3.58;;;0.30;99.90;;;;;;5052938;28;20124;-75
2022/04/01 06:50:07;;;;;;;8.57;4.05;;;0.30;99.90;;;;;;5053036;28;20480;-76
2022/04/01 06:52:34;;;;;;;5.82;4.30;;;0.30;99.90;;;;;;5053015;28;20052;-76
2022/04/01 06:55:00;;;;;;;8.38;3.67;;;0.40;99.90;;;;;;5053100;28;20031;-76
2022/04/01 06:57:25;;;;;;;5.55;3.60;;;0.40;99.90;;;;;;5052906;28;20487;-76
2022/04/01 06:59:51;;;;;;;8.40;3.28;;;0.30;99.90;;;;;;5053137;28;20070;-74
2022/04/01 07:02:17;;;;;;;5.63;3.55;;;0.30;99.90;;;;;;5053201;28;20119;-76
2022/04/01 07:04:43;;;;;;;4.78;3.17;;;0.30;99.90;;;;;;5053212;28;20123;-71
2022/04/01 07:07:09;;;;;;;4.65;3.20;;;0.30;99.90;;;;;;5053139;28;20627;-76
2022/04/01 07:09:38;;;;;;;5.07;3.17;;;0.40;99.90;;;;;;5052991;28;20123;-76
2022/04/01 07:12:04;;;;;;;7.53;3.35;;;0.30;99.90;;;;;;5052867;28;20041;-75
2022/04/01 07:14:34;;;;;;;5.43;3.03;;;0.30;99.90;;;;;;5053235;28;20040;-76
2022/04/01 07:17:00;;;;;;;5.60;2.85;;;0.30;99.90;;;;;;5052878;28;20385;-76
2022/04/01 07:19:26;;;;;;;8.35;3.13;;;0.20;99.90;;;;;;5053369;28;20032;-76
2022/04/01 07:21:52;;;;;;;3.95;2.97;;;0.20;99.90;;;;;;5040691;28;20516;-74
2022/04/01 07:24:18;;;;;;;8.70;3.58;;;0.20;99.90;;;;;;5032866;28;20045;-76
2022/04/01 07:26:47;;;;;;;10.07;3.53;;;0.20;99.90;;;;;;5032774;28;20079;-76
2022/04/01 07:29:13;;;;;;;6.50;2.92;;;0.30;99.90;;;;;;5031757;28;20045;-72
2022/04/01 07:34:36;;;;;;;7.38;5.28;;;0.30;99.90;;;;;;5032931;28;20045;-75
2022/04/01 07:37:02;;;;;;;6.68;3.35;;;0.50;99.90;;;;;;5032833;28;20121;-72
2022/04/01 07:39:28;;;;;;;9.05;4.18;;;0.20;99.90;;;;;;5032895;28;20050;-78
2022/04/01 07:41:54;;;;;;;6.22;3.10;;;0.40;99.90;;;;;;5032815;28;20032;-75
2022/04/01 07:44:22;;;;;;;10.80;3.30;;;0.30;99.90;;;;;;5035091;28;20149;-77
2022/04/01 07:46:48;;;;;;;6.22;2.78;;;0.30;99.90;;;;;;5033165;28;20025;-76
2022/04/01 07:49:14;;;;;;;6.32;2.85;;;0.30;99.90;;;;;;5032621;28;20103;-77
2022/04/01 07:51:40;;;;;;;5.97;2.47;;;0.40;99.90;;;;;;5032501;28;20148;-77
2022/04/01 07:54:06;;;;;;;7.45;2.88;;;0.30;99.90;;;;;;5032427;28;20124;-77
2022/04/01 07:56:32;;;;;;;6.75;2.60;;;0.30;99.90;;;;;;5032553;28;20044;-69
2022/04/01 07:59:00;;;;;;;5.85;2.35;;;0.40;99.90;;;;;;5044637;28;20041;-77
2022/04/01 08:01:26;;;;;;;9.95;3.83;;;0.40;99.90;;;;;;5056159;28;20045;-77
2022/04/01 08:03:53;;;;;;;8.13;2.53;;;0.50;99.90;;;;;;5056374;28;20163;-77
2022/04/01 08:06:22;;;;;;;6.03;2.83;;;0.60;99.90;;;;;;5045788;28;20137;-70
2022/04/01 08:08:48;;;;;;;6.13;2.85;;;0.70;99.90;;;;;;5034077;28;20559;-79
2022/04/01 08:11:14;;;;;;;4.22;2.25;;;0.70;99.90;;;;;;5033826;28;20049;-72
2022/04/01 08:13:40;;;;;;;5.38;2.70;;;0.50;99.90;;;;;;5033955;28;20038;-74
2022/04/01 08:16:05;;;;;;;6.28;2.83;;;0.50;99.90;;;;;;5033391;28;20040;-71
2022/04/01 08:18:31;;;;;;;7.07;2.20;;;0.30;99.90;;;;;;5034094;28;20455;-72
2022/04/01 08:20:57;;;;;;;7.00;2.35;;;0.40;99.90;;;;;;5033242;28;20046;-78
2022/04/01 08:23:23;;;;;;;10.00;2.80;;;0.50;99.90;;;;;;5033451;28;20489;-77
2022/04/01 08:25:49;;;;;;;8.10;2.80;;;0.60;99.90;;;;;;5030587;28;20896;-78
2022/04/01 08:28:15;;;;;;;7.50;2.83;;;0.60;99.90;;;;;;5033326;28;20132;-72
2022/04/01 08:30:41;;;;;;;7.97;2.90;;;0.70;99.90;;;;;;5034232;28;20056;-69
2022/04/01 08:33:07;;;;;;;7.18;2.22;;;0.60;99.90;;;;;;5033492;28;20490;-80
2022/04/01 08:35:34;;;;;;;5.60;2.22;;;0.70;99.90;;;;;;5031382;28;20095;-79
2022/04/01 08:38:01;;;;;;;5.78;2.17;;;0.80;99.90;;;;;;5015994;28;20132;-76
2022/04/01 08:40:32;;;;;;;;;;;0.70;99.90;;;;;;5034045;28;20088;-77
2022/04/01 08:42:58;;;;;;;9.77;3.97;;;0.70;99.90;;;;;;5030537;28;19917;-71
2022/04/01 08:45:24;;;;;;;8.82;2.67;;;0.80;99.90;;;;;;5030576;28;20044;-68
2022/04/01 08:47:50;;;;;;;10.93;2.85;;;0.70;99.90;;;;;;5032843;28;20052;-73
2022/04/01 08:50:16;;;;;;;9.02;2.47;;;0.60;99.90;;;;;;5013761;28;20042;-73
2022/04/01 08:52:42;;;;;;;11.07;2.70;;;0.70;99.90;;;;;;5013532;28;20539;-72
2022/04/01 08:55:10;;;;;;;8.70;3.28;;;0.60;99.90;;;;;;5013498;28;20045;-73
2022/04/01 08:57:37;;;;;;;10.38;2.58;;;0.50;99.90;;;;;;5012332;28;20540;-73
2022/04/01 09:00:23;;;;;;;6.75;2.38;;;0.70;99.90;;;;;;5012965;28;20057;-73
2022/04/01 09:03:01;;;;;;;10.45;3.47;;;0.70;99.90;;;;;;5002763;28;20052;-72
2022/04/01 09:05:27;;;;;;;11.32;2.60;;;0.70;99.90;;;;;;5013128;28;20034;-76
2022/04/01 09:08:04;;;;;;;11.88;3.22;;;0.30;99.90;;;;;;5012797;28;20393;-72
2022/04/01 09:10:30;;;;;;;9.07;2.45;;;0.40;99.90;;;;;;5012690;28;20476;-72
2022/04/01 09:12:56;;;;;;;14.80;3.03;;;0.50;99.90;;;;;;5011965;28;20053;-69
2022/04/01 09:15:37;;;;;;;9.38;2.63;;;0.60;99.90;;;;;;5013127;28;20115;-73
2022/04/01 09:18:03;;;;;;;9.02;2.90;;;0.60;99.90;;;;;;5013118;28;20079;-73
2022/04/01 09:20:48;;;;;;;7.65;2.63;;;0.50;99.90;;;;;;5013307;28;20041;-74
2022/04/01 09:23:22;;;;;;;11.05;2.78;;;0.70;99.90;;;;;;5013462;28;20042;-71
2022/04/01 09:25:50;;;;;;;6.68;2.47;;;0.70;99.90;;;;;;5013130;28;20494;-69
2022/04/01 09:28:26;;;;;;;10.10;2.85;;;0.50;99.90;;;;;;5014302;28;20037;-74
2022/04/01 09:31:09;;;;;;;11.45;2.35;;;0.60;99.90;;;;;;5012952;28;20045;-69
2022/04/01 09:33:48;;;;;;;11.32;3.08;;;0.50;99.90;;;;;;5013714;28;20041;-69
2022/04/01 09:36:17;;;;;;;12.73;3.38;;;0.60;99.90;;;;;;5014261;28;20494;-71
2022/04/01 09:39:07;;;;;;;9.38;2.42;;;0.40;99.90;;;;;;5013263;28;20073;-73
2022/04/01 09:41:45;;;;;;;15.45;2.63;;;0.30;99.90;;;;;;5013337;28;20115;-72
2022/04/01 09:44:20;;;;;;;9.90;2.88;;;0.30;99.90;;;;;;5013228;28;20120;-72
2022/04/01 09:46:52;;;;;;;11.70;3.20;;;0.30;99.90;;;;;;5013071;28;20034;-73
2022/04/01 09:49:42;;;;;;;7.13;2.50;;;0.30;99.90;;;;;;5024232;28;20050;-73
2022/04/01 09:52:20;;;;;;;11.30;3.50;;;0.50;99.90;;;;;;5032242;28;20520;-73
2022/04/01 09:54:50;;;;;;;13.38;3.40;;;0.60;99.90;;;;;;5033209;28;20413;-73
2022/04/01 09:57:19;;;;;;;8.82;2.70;;;0.40;99.90;;;;;;5032488;28;20049;-75
2022/04/01 09:59:47;;;;;;;10.45;2.75;;;0.50;99.90;;;;;;5032520;28;20500;-73
2022/04/01 10:02:13;;;;;;;15.00;3.30;;;0.50;99.90;;;;;;5032210;28;20044;-73
2022/04/01 10:04:39;;;;;;;7.95;2.70;;;0.40;99.90;;;;;;5032572;28;20505;-73
2022/04/01 10:07:05;;;;;;;13.10;2.78;;;0.60;99.90;;;;;;5032187;28;20040;-75
2022/04/01 10:09:31;;;;;;;9.43;2.83;;;0.40;99.90;;;;;;5033536;28;20049;-75
2022/04/01 10:12:03;;;;;;;8.43;2.72;;;0.40;99.90;;;;;;5033863;28;20413;-76
2022/04/01 10:14:31;;;;;;;9.82;2.95;;;0.50;99.90;;;;;;5033314;28;20069;-76
2022/04/01 10:17:00;;;;;;;6.30;2.45;;;0.40;99.90;;;;;;5031188;28;20048;-76
2022/04/01 10:19:32;;;;;;;11.20;3.42;;;0.60;99.90;;;;;;5032005;28;20048;-76
2022/04/01 10:21:59;;;;;;;11.52;2.80;;;0.80;99.90;;;;;;5031683;28;20103;-75
2022/04/01 10:24:31;;;;;;;12.57;3.28;;;0.50;99.90;;;;;;5033151;28;20041;-75
2022/04/01 10:27:23;;;;;;;10.38;4.53;;;0.50;99.90;;;;;;5032825;28;20064;-75
2022/04/01 10:29:49;;;;;;;9.35;4.07;;;0.70;99.90;;;;;;5031836;28;20041;-70
2022/04/01 10:32:27;;;;;;;8.25;2.60;;;0.70;99.90;;;;;;5031629;28;20505;-75
2022/04/01 10:34:58;;;;;;;10.30;3.13;;;0.60;99.90;;;;;;5031496;28;20045;-73
2022/04/01 10:37:25;;;;;;;14.57;4.63;;;0.60;99.90;;;;;;5031771;28;20107;-72
2022/04/01 10:40:09;;;;;;;7.53;3.83;;;0.70;99.90;;;;;;5013976;28;20073;-73
2022/04/01 10:42:38;;;;;;;9.05;3.58;;;0.80;99.90;;;;;;5030870;28;20099;-73
2022/04/01 10:45:08;;;;;;;10.05;2.40;;;0.70;99.90;;;;;;5032716;28;20045;-71
2022/04/01 10:53:48;;;;;;;6.78;3.67;;;0.80;99.90;;;;;;5030805;28;20090;-74
2022/04/01 10:56:23;;;;;;;13.07;5.35;;;0.90;99.90;;;;;;5031072;28;20421;-73
2022/04/01 10:59:24;;;;;;;8.07;2.70;;;0.90;99.90;;;;;;5032306;28;20390;-71
2022/04/01 11:01:53;;;;;;;;;;;0.70;99.90;;;;;;5031794;28;20056;-71
2022/04/01 11:04:19;;;;;;;11.60;3.78;;;0.90;99.90;;;;;;5031162;28;19917;-75
2022/04/01 11:06:57;;;;;;;7.40;3.17;;;0.90;99.90;;;;;;5031022;28;20045;-74
2022/04/01 11:09:48;;;;;;;6.13;2.63;;;1.00;99.90;;;;;;5031033;28;20042;-74
2022/04/01 11:12:18;;;;;;;12.93;3.00;;;0.70;99.90;;;;;;5022374;28;20057;-74
2022/04/01 11:14:59;;;;;;;9.50;2.72;;;0.90;99.90;;;;;;5032539;28;20044;-74
2022/04/01 11:17:34;;;;;;;9.05;2.55;;;0.80;99.90;;;;;;5032264;28;20041;-72
2022/04/01 11:20:09;;;;;;;11.63;3.03;;;0.90;99.90;;;;;;5030677;28;20051;-74
2022/04/01 11:22:53;;;;;;;20.35;13.60;;;0.80;99.90;;;;;;5030578;28;20045;-71
2022/04/01 11:25:22;;;;;;;5.43;2.38;;;0.90;99.90;;;;;;5030283;28;20052;-72
2022/04/01 11:28:17;;;;;;;6.55;2.92;;;0.80;99.90;;;;;;5030902;28;20095;-70
2022/04/01 11:31:06;;;;;;;10.93;3.47;;;0.80;99.90;;;;;;5029594;28;20038;-71
2022/04/01 11:33:33;;;;;;;8.68;2.85;;;0.90;99.90;;;;;;5020612;28;20052;-71
2022/04/01 11:35:59;;;;;;;7.55;3.00;;;1.00;99.90;;;;;;5033327;28;20040;-72
2022/04/01 11:38:27;;;;;;;9.82;3.45;;;0.80;99.90;;;;;;5034814;28;20041;-71
2022/04/01 11:40:56;;;;;;;5.50;2.50;;;0.70;99.90;;;;;;5034443;28;20400;-71
2022/04/01 11:43:24;;;;;;;5.72;2.75;;;0.80;99.90;;;;;;5034666;28;20048;-70
2022/04/01 11:46:02;;;;;;;5.20;3.83;;;0.80;99.90;;;;;;5034903;28;20030;-72
2022/04/01 11:48:31;;;;;;;4.57;2.30;;;1.00;99.90;;;;;;5034577;28;20501;-72
2022/04/01 11:51:20;;;;;;;6.13;2.45;;;1.00;99.90;;;;;;5035060;28;20501;-71
2022/04/01 11:53:49;;;;;;;5.80;2.50;;;1.00;99.90;;;;;;5035675;28;20117;-73
2022/04/01 11:56:17;;;;;;;3.83;2.10;;;1.00;99.90;;;;;;5034292;28;20131;-70
2022/04/01 11:59:01;;;;;;;4.70;2.25;;;1.00;99.90;;;;;;5034413;28;20033;-71
2022/04/01 12:01:31;;;;;;;5.80;2.30;;;0.90;99.90;;;;;;5034446;28;20045;-74
2022/04/01 12:04:15;;;;;;;6.93;3.53;;;1.10;99.90;;;;;;5034214;28;20559;-71
2022/04/01 12:09:30;;;;;;;6.85;2.33;;;1.10;99.90;;;;;;5034209;28;20520;-73
2022/04/01 12:11:58;;;;;;;4.93;2.13;;;1.10;99.90;;;;;;5034886;28;20049;-75
2022/04/01 12:14:24;;;;;;;5.18;2.08;;;1.10;99.90;;;;;;5035978;28;20088;-75
2022/04/01 12:16:50;;;;;;;4.57;2.03;;;1.00;99.90;;;;;;5034332;28;20116;-72
2022/04/01 12:19:20;;;;;;;4.75;1.77;;;0.80;99.90;;;;;;5033566;28;20038;-73
2022/04/01 12:22:05;;;;;;;6.13;2.03;;;0.70;99.90;;;;;;5035734;28;20054;-78
2022/04/01 12:24:35;;;;;;;4.68;2.30;;;0.90;99.90;;;;;;5034384;28;20425;-79
2022/04/01 12:27:02;;;;;;;8.68;4.65;;;1.10;99.90;;;;;;5033542;28;20099;-71
2022/04/01 12:29:29;;;;;;;4.70;2.03;;;0.90;99.90;;;;;;5035299;28;20091;-69
2022/04/01 12:32:02;;;;;;;4.03;2.38;;;0.90;99.90;;;;;;5035260;28;20053;-77
2022/04/01 12:34:28;;;;;;;5.97;2.30;;;0.90;99.90;;;;;;5033103;28;20073;-79
2022/04/01 12:37:06;;;;;;;6.95;2.13;;;1.00;99.90;;;;;;5034432;28;20052;-78
2022/04/01 12:39:35;;;;;;;3.03;1.88;;;1.10;99.90;;;;;;5033774;28;20414;-78
2022/04/01 12:42:07;;;;;;;4.25;2.22;;;1.10;99.90;;;;;;5032940;28;20049;-77
2022/04/01 12:44:35;;;;;;;6.68;2.40;;;1.10;99.90;;;;;;5033679;28;20513;-78
2022/04/01 12:47:05;;;;;;;5.72;2.25;;;1.20;99.90;;;;;;5032818;28;20045;-77
2022/04/01 12:49:33;;;;;;;3.53;1.90;;;1.30;99.90;;;;;;5046049;28;20036;-75
2022/04/01 12:52:03;;;;;;;5.10;2.17;;;1.00;99.90;;;;;;5051074;28;20068;-73
2022/04/01 12:54:33;;;;;;;6.05;2.38;;;1.00;99.90;;;;;;5054611;28;20033;-71
2022/04/01 12:57:05;;;;;;;6.55;2.58;;;1.20;99.90;;;;;;5054980;28;20052;-76
2022/04/01 12:59:38;;;;;;;6.00;1.92;;;1.30;99.90;;;;;;5054924;28;20040;-75
2022/04/01 13:02:16;;;;;;;7.13;2.13;;;1.10;99.90;;;;;;5042594;28;20115;-73
2022/04/01 13:04:44;;;;;;;5.03;2.35;;;0.80;99.90;;;;;;5032883;28;20613;-76
2022/04/01 13:07:15;;;;;;;5.50;2.17;;;1.00;99.90;;;;;;5033183;28;20052;-76
2022/04/01 13:10:05;;;;;;;9.60;2.85;;;1.10;99.90;;;;;;5035316;28;20049;-77
2022/04/01 13:12:38;;;;;;;8.27;2.97;;;1.20;99.90;;;;;;5024847;28;20558;-78
2022/04/01 13:15:09;;;;;;;6.28;2.13;;;1.20;99.90;;;;;;5033304;28;20505;-78
2022/04/01 13:17:44;;;;;;;5.07;2.10;;;1.20;99.90;;;;;;5032858;28;20423;-78
2022/04/01 13:20:12;;;;;;;4.70;2.05;;;1.00;99.90;;;;;;5033407;28;20041;-78
2022/04/01 13:22:41;;;;;;;6.82;2.63;;;1.10;99.90;;;;;;5033751;28;20044;-79
2022/04/01 13:25:12;;;;;;;5.35;2.00;;;1.20;99.90;;;;;;5034082;28;20130;-77
2022/04/01 13:27:39;;;;;;;8.27;2.42;;;1.40;99.90;;;;;;5032684;28;20523;-76
2022/04/01 13:30:07;;;;;;;4.85;2.25;;;1.40;99.90;;;;;;5032692;28;20057;-77